sensor_id;sensor_type;location;lat;lon;timestamp;temperature;humidity
23160;DHT22;11748;50.844;4.396;2022-11-18T00:00:55;11.50;99.90
23160;DHT22;11748;50.844;4.396;2022-11-18T00:03:21;11.50;99.90
23160;DHT22;11748;50.844;4.396;2022-11-18T00:05:54;11.50;99.90
23160;DHT22;11748;50.844;4.396;2022-11-18T00:08:21;11.40;99.90
23160;DHT22;11748;50.844;4.396;2022-11-18T00:10:48;11.20;99.90
23160;DHT22;11748;50.844;4.396;2022-11-18T00:13:14;11.20;99.90
23160;DHT22;11748;50.844;4.396;2022-11-18T00:16:07;11.20;99.90
23160;DHT22;11748;50.844;4.396;2022-11-18T00:18:34;11.30;99.90
23160;DHT22;11748;50.844;4.396;2022-11-18T00:21:04;11.40;99.90
23160;DHT22;11748;50.844;4.396;2022-11-18T00:23:30;11.40;99.90
23160;DHT22;11748;50.844;4.396;2022-11-18T00:26:03;11.40;99.90
23160;DHT22;11748;50.844;4.396;2022-11-18T00:28:30;11.40;99.90
23160;DHT22;11748;50.844;4.396;2022-11-18T00:31:04;11.30;99.90
23160;DHT22;11748;50.844;4.396;2022-11-18T00:33:31;11.30;99.90
23160;DHT22;11748;50.844;4.396;2022-11-18T00:35:57;11.30;99.90
23160;DHT22;11748;50.844;4.396;2022-11-18T00:38:24;11.30;99.90
23160;DHT22;11748;50.844;4.396;2022-11-18T00:41:12;11.30;99.90
23160;DHT22;11748;50.844;4.396;2022-11-18T00:43:39;11.20;99.90
23160;DHT22;11748;50.844;4.396;2022-11-18T00:46:07;11.20;99.90
23160;DHT22;11748;50.844;4.396;2022-11-18T00:48:42;11.30;99.90
23160;DHT22;11748;50.844;4.396;2022-11-18T00:51:16;11.30;99.90
23160;DHT22;11748;50.844;4.396;2022-11-18T00:53:44;11.20;99.90
23160;DHT22;11748;50.844;4.396;2022-11-18T00:56:10;11.30;99.90
23160;DHT22;11748;50.844;4.396;2022-11-18T00:58:36;11.40;99.90
23160;DHT22;11748;50.844;4.396;2022-11-18T01:01:03;11.30;99.90
23160;DHT22;11748;50.844;4.396;2022-11-18T01:03:29;11.40;99.90
23160;DHT22;11748;50.844;4.396;2022-11-18T01:05:57;11.40;99.90
23160;DHT22;11748;50.844;4.396;2022-11-18T01:08:24;11.50;99.90
23160;DHT22;11748;50.844;4.396;2022-11-18T01:10:50;11.60;99.90
23160;DHT22;11748;50.844;4.396;2022-11-18T01:13:19;11.70;99.90
23160;DHT22;11748;50.844;4.396;2022-11-18T01:16:03;11.40;99.90
23160;DHT22;11748;50.844;4.396;2022-11-18T01:18:29;11.40;99.90
23160;DHT22;11748;50.844;4.396;2022-11-18T01:21:02;11.40;99.90
23160;DHT22;11748;50.844;4.396;2022-11-18T01:23:28;11.20;99.90
23160;DHT22;11748;50.844;4.396;2022-11-18T01:25:54;11.10;99.90
23160;DHT22;11748;50.844;4.396;2022-11-18T01:28:20;11.00;99.90
23160;DHT22;11748;50.844;4.396;2022-11-18T01:30:47;10.90;99.90
23160;DHT22;11748;50.844;4.396;2022-11-18T01:33:14;10.70;99.90
23160;DHT22;11748;50.844;4.396;2022-11-18T01:35:41;10.60;99.90
23160;DHT22;11748;50.844;4.396;2022-11-18T01:38:10;10.70;99.90
23160;DHT22;11748;50.844;4.396;2022-11-18T01:40:36;10.60;99.90
23160;DHT22;11748;50.844;4.396;2022-11-18T01:43:08;10.70;99.90
23160;DHT22;11748;50.844;4.396;2022-11-18T01:45:38;10.60;99.90
23160;DHT22;11748;50.844;4.396;2022-11-18T01:48:28;10.60;99.90
23160;DHT22;11748;50.844;4.396;2022-11-18T01:50:59;10.60;99.90
23160;DHT22;11748;50.844;4.396;2022-11-18T01:53:31;10.60;99.90
23160;DHT22;11748;50.844;4.396;2022-11-18T01:56:02;10.80;99.90
23160;DHT22;11748;50.844;4.396;2022-11-18T01:58:42;10.90;99.90
23160;DHT22;11748;50.844;4.396;2022-11-18T02:01:09;10.70;99.90
23160;DHT22;11748;50.844;4.396;2022-11-18T02:03:35;10.80;99.90
23160;DHT22;11748;50.844;4.396;2022-11-18T02:06:04;10.70;99.90
23160;DHT22;11748;50.844;4.396;2022-11-18T02:08:31;10.70;99.90
23160;DHT22;11748;50.844;4.396;2022-11-18T02:11:03;10.70;99.90
23160;DHT22;11748;50.844;4.396;2022-11-18T02:13:29;10.80;99.90
23160;DHT22;11748;50.844;4.396;2022-11-18T02:16:10;10.70;99.90
23160;DHT22;11748;50.844;4.396;2022-11-18T02:18:53;10.80;99.90
23160;DHT22;11748;50.844;4.396;2022-11-18T02:21:45;10.80;99.90
23160;DHT22;11748;50.844;4.396;2022-11-18T02:24:28;10.70;99.90
23160;DHT22;11748;50.844;4.396;2022-11-18T02:30:03;10.80;99.90
23160;DHT22;11748;50.844;4.396;2022-11-18T02:32:33;10.60;99.90
23160;DHT22;11748;50.844;4.396;2022-11-18T02:38:28;10.60;99.90
23160;DHT22;11748;50.844;4.396;2022-11-18T02:41:05;10.50;99.90
23160;DHT22;11748;50.844;4.396;2022-11-18T02:43:46;10.50;99.90
23160;DHT22;11748;50.844;4.396;2022-11-18T02:46:18;10.50;99.90
23160;DHT22;11748;50.844;4.396;2022-11-18T02:48:48;10.50;99.90
23160;DHT22;11748;50.844;4.396;2022-11-18T02:51:26;10.60;99.90
23160;DHT22;11748;50.844;4.396;2022-11-18T02:54:02;10.60;99.90
23160;DHT22;11748;50.844;4.396;2022-11-18T02:56:32;10.70;99.90
23160;DHT22;11748;50.844;4.396;2022-11-18T02:58:58;10.80;99.90
23160;DHT22;11748;50.844;4.396;2022-11-18T03:01:30;10.80;99.90
23160;DHT22;11748;50.844;4.396;2022-11-18T03:03:58;10.80;99.90
23160;DHT22;11748;50.844;4.396;2022-11-18T03:06:38;10.70;99.90
23160;DHT22;11748;50.844;4.396;2022-11-18T03:09:09;10.50;99.90
23160;DHT22;11748;50.844;4.396;2022-11-18T03:17:04;10.30;99.90
23160;DHT22;11748;50.844;4.396;2022-11-18T03:22:30;10.50;99.90
23160;DHT22;11748;50.844;4.396;2022-11-18T03:25:30;10.50;99.90
23160;DHT22;11748;50.844;4.396;2022-11-18T03:28:13;10.50;99.90
23160;DHT22;11748;50.844;4.396;2022-11-18T03:30:55;10.50;99.90
23160;DHT22;11748;50.844;4.396;2022-11-18T03:33:30;10.40;99.90
23160;DHT22;11748;50.844;4.396;2022-11-18T03:36:00;10.40;99.90
23160;DHT22;11748;50.844;4.396;2022-11-18T03:38:29;10.40;99.90
23160;DHT22;11748;50.844;4.396;2022-11-18T03:41:00;10.40;99.90
23160;DHT22;11748;50.844;4.396;2022-11-18T03:43:31;10.30;99.90
23160;DHT22;11748;50.844;4.396;2022-11-18T03:46:04;10.40;99.90
23160;DHT22;11748;50.844;4.396;2022-11-18T03:48:37;10.30;99.90
23160;DHT22;11748;50.844;4.396;2022-11-18T03:51:09;10.30;99.90
23160;DHT22;11748;50.844;4.396;2022-11-18T03:53:39;10.20;99.90
23160;DHT22;11748;50.844;4.396;2022-11-18T03:56:28;10.20;99.90
23160;DHT22;11748;50.844;4.396;2022-11-18T03:59:06;10.30;99.90
23160;DHT22;11748;50.844;4.396;2022-11-18T04:01:48;10.30;99.90
23160;DHT22;11748;50.844;4.396;2022-11-18T04:04:16;10.30;99.90
23160;DHT22;11748;50.844;4.396;2022-11-18T04:06:53;10.20;99.90
23160;DHT22;11748;50.844;4.396;2022-11-18T04:09:29;10.20;99.90
23160;DHT22;11748;50.844;4.396;2022-11-18T04:12:02;10.20;99.90
23160;DHT22;11748;50.844;4.396;2022-11-18T04:14:32;10.10;99.90
23160;DHT22;11748;50.844;4.396;2022-11-18T04:17:06;10.10;99.90
23160;DHT22;11748;50.844;4.396;2022-11-18T04:19:35;9.90;99.90
23160;DHT22;11748;50.844;4.396;2022-11-18T04:22:03;9.80;99.90
23160;DHT22;11748;50.844;4.396;2022-11-18T04:24:30;9.80;99.90
23160;DHT22;11748;50.844;4.396;2022-11-18T04:26:56;9.90;99.90
23160;DHT22;11748;50.844;4.396;2022-11-18T04:29:21;9.80;99.90
23160;DHT22;11748;50.844;4.396;2022-11-18T04:31:48;9.90;99.90
23160;DHT22;11748;50.844;4.396;2022-11-18T04:34:14;9.90;99.90
23160;DHT22;11748;50.844;4.396;2022-11-18T04:36:40;10.10;99.90
23160;DHT22;11748;50.844;4.396;2022-11-18T04:39:07;10.10;99.90
23160;DHT22;11748;50.844;4.396;2022-11-18T04:41:34;9.80;99.90
23160;DHT22;11748;50.844;4.396;2022-11-18T04:44:18;9.90;99.90
23160;DHT22;11748;50.844;4.396;2022-11-18T04:46:44;9.90;99.90
23160;DHT22;11748;50.844;4.396;2022-11-18T04:49:12;9.80;99.90
23160;DHT22;11748;50.844;4.396;2022-11-18T04:51:40;9.80;99.90
23160;DHT22;11748;50.844;4.396;2022-11-18T04:54:07;9.90;99.90
23160;DHT22;11748;50.844;4.396;2022-11-18T04:56:33;9.90;99.90
23160;DHT22;11748;50.844;4.396;2022-11-18T04:59:00;10.00;99.90
23160;DHT22;11748;50.844;4.396;2022-11-18T05:01:27;10.00;99.90
23160;DHT22;11748;50.844;4.396;2022-11-18T05:03:54;10.00;99.90
23160;DHT22;11748;50.844;4.396;2022-11-18T05:06:21;9.90;99.90
23160;DHT22;11748;50.844;4.396;2022-11-18T05:08:47;9.70;99.90
23160;DHT22;11748;50.844;4.396;2022-11-18T05:11:13;9.70;99.90
23160;DHT22;11748;50.844;4.396;2022-11-18T05:13:57;9.60;99.90
23160;DHT22;11748;50.844;4.396;2022-11-18T05:16:23;9.50;99.90
23160;DHT22;11748;50.844;4.396;2022-11-18T05:18:48;9.70;99.90
23160;DHT22;11748;50.844;4.396;2022-11-18T05:21:14;9.70;99.90
23160;DHT22;11748;50.844;4.396;2022-11-18T05:23:40;9.70;99.90
23160;DHT22;11748;50.844;4.396;2022-11-18T05:26:07;9.60;99.90
23160;DHT22;11748;50.844;4.396;2022-11-18T05:28:34;9.70;99.90
23160;DHT22;11748;50.844;4.396;2022-11-18T05:31:22;9.60;99.90
23160;DHT22;11748;50.844;4.396;2022-11-18T05:33:48;9.60;99.90
23160;DHT22;11748;50.844;4.396;2022-11-18T05:36:16;9.60;99.90
23160;DHT22;11748;50.844;4.396;2022-11-18T05:38:43;9.60;99.90
23160;DHT22;11748;50.844;4.396;2022-11-18T05:41:09;9.50;99.90
23160;DHT22;11748;50.844;4.396;2022-11-18T05:43:35;9.60;99.90
23160;DHT22;11748;50.844;4.396;2022-11-18T05:46:02;9.60;99.90
23160;DHT22;11748;50.844;4.396;2022-11-18T05:48:28;9.50;99.90
23160;DHT22;11748;50.844;4.396;2022-11-18T05:50:54;9.50;99.90
23160;DHT22;11748;50.844;4.396;2022-11-18T05:53:24;9.60;99.90
23160;DHT22;11748;50.844;4.396;2022-11-18T05:55:55;9.50;99.90
23160;DHT22;11748;50.844;4.396;2022-11-18T05:58:21;9.60;99.90
23160;DHT22;11748;50.844;4.396;2022-11-18T06:00:49;9.70;99.90
23160;DHT22;11748;50.844;4.396;2022-11-18T06:03:23;9.70;99.90
23160;DHT22;11748;50.844;4.396;2022-11-18T06:05:53;9.50;99.90
23160;DHT22;11748;50.844;4.396;2022-11-18T06:08:20;9.50;99.90
23160;DHT22;11748;50.844;4.396;2022-11-18T06:10:47;9.30;99.90
23160;DHT22;11748;50.844;4.396;2022-11-18T06:13:19;9.30;99.90
23160;DHT22;11748;50.844;4.396;2022-11-18T06:15:47;9.40;99.90
23160;DHT22;11748;50.844;4.396;2022-11-18T06:18:30;9.50;99.90
23160;DHT22;11748;50.844;4.396;2022-11-18T06:21:00;9.60;99.90
23160;DHT22;11748;50.844;4.396;2022-11-18T06:23:33;9.50;99.90
23160;DHT22;11748;50.844;4.396;2022-11-18T06:26:00;9.50;99.90
23160;DHT22;11748;50.844;4.396;2022-11-18T06:28:27;9.60;99.90
23160;DHT22;11748;50.844;4.396;2022-11-18T06:30:53;9.70;99.90
23160;DHT22;11748;50.844;4.396;2022-11-18T06:33:18;9.60;99.90
23160;DHT22;11748;50.844;4.396;2022-11-18T06:35:44;9.70;99.90
23160;DHT22;11748;50.844;4.396;2022-11-18T06:38:10;9.70;99.90
23160;DHT22;11748;50.844;4.396;2022-11-18T06:40:38;9.50;99.90
23160;DHT22;11748;50.844;4.396;2022-11-18T06:43:08;9.60;99.90
23160;DHT22;11748;50.844;4.396;2022-11-18T06:46:01;9.60;99.90
23160;DHT22;11748;50.844;4.396;2022-11-18T06:48:47;9.60;99.90
23160;DHT22;11748;50.844;4.396;2022-11-18T06:51:15;9.60;99.90
23160;DHT22;11748;50.844;4.396;2022-11-18T06:53:41;9.70;99.90
23160;DHT22;11748;50.844;4.396;2022-11-18T06:56:10;9.50;99.90
23160;DHT22;11748;50.844;4.396;2022-11-18T06:58:37;9.40;99.90
23160;DHT22;11748;50.844;4.396;2022-11-18T07:01:13;9.40;99.90
23160;DHT22;11748;50.844;4.396;2022-11-18T07:03:46;9.50;99.90
23160;DHT22;11748;50.844;4.396;2022-11-18T07:06:15;9.70;99.90
23160;DHT22;11748;50.844;4.396;2022-11-18T07:08:42;9.80;99.90
23160;DHT22;11748;50.844;4.396;2022-11-18T07:11:10;9.90;99.90
23160;DHT22;11748;50.844;4.396;2022-11-18T07:13:37;10.00;99.90
23160;DHT22;11748;50.844;4.396;2022-11-18T07:16:04;10.10;99.90
23160;DHT22;11748;50.844;4.396;2022-11-18T07:18:36;10.10;99.90
23160;DHT22;11748;50.844;4.396;2022-11-18T07:21:05;10.20;99.90
23160;DHT22;11748;50.844;4.396;2022-11-18T07:23:33;10.30;99.90
23160;DHT22;11748;50.844;4.396;2022-11-18T07:25:58;10.30;99.90
23160;DHT22;11748;50.844;4.396;2022-11-18T07:28:25;10.40;99.90
23160;DHT22;11748;50.844;4.396;2022-11-18T07:30:50;10.40;99.90
23160;DHT22;11748;50.844;4.396;2022-11-18T07:33:17;10.50;99.90
23160;DHT22;11748;50.844;4.396;2022-11-18T07:35:43;10.50;99.90
23160;DHT22;11748;50.844;4.396;2022-11-18T07:38:08;10.60;99.90
23160;DHT22;11748;50.844;4.396;2022-11-18T07:40:34;10.60;99.90
23160;DHT22;11748;50.844;4.396;2022-11-18T07:43:01;10.50;99.90
23160;DHT22;11748;50.844;4.396;2022-11-18T07:45:26;10.50;99.90
23160;DHT22;11748;50.844;4.396;2022-11-18T07:47:52;10.50;99.90
23160;DHT22;11748;50.844;4.396;2022-11-18T07:50:18;10.70;99.90
23160;DHT22;11748;50.844;4.396;2022-11-18T07:52:43;10.80;99.90
23160;DHT22;11748;50.844;4.396;2022-11-18T07:55:09;10.80;99.90
23160;DHT22;11748;50.844;4.396;2022-11-18T07:57:35;10.90;99.90
23160;DHT22;11748;50.844;4.396;2022-11-18T08:00:01;10.80;99.90
23160;DHT22;11748;50.844;4.396;2022-11-18T08:02:29;10.70;99.90
23160;DHT22;11748;50.844;4.396;2022-11-18T08:04:56;10.60;99.90
23160;DHT22;11748;50.844;4.396;2022-11-18T08:07:22;10.70;99.90
23160;DHT22;11748;50.844;4.396;2022-11-18T08:09:47;10.80;99.90
23160;DHT22;11748;50.844;4.396;2022-11-18T08:12:13;10.70;99.90
23160;DHT22;11748;50.844;4.396;2022-11-18T08:14:41;10.60;99.90
23160;DHT22;11748;50.844;4.396;2022-11-18T08:17:06;10.70;99.90
23160;DHT22;11748;50.844;4.396;2022-11-18T08:19:37;10.90;99.90
23160;DHT22;11748;50.844;4.396;2022-11-18T08:22:03;10.90;99.90
23160;DHT22;11748;50.844;4.396;2022-11-18T08:24:30;10.70;99.90
23160;DHT22;11748;50.844;4.396;2022-11-18T08:26:56;10.80;99.90
23160;DHT22;11748;50.844;4.396;2022-11-18T08:29:21;10.90;99.90
23160;DHT22;11748;50.844;4.396;2022-11-18T08:31:47;10.90;99.90
23160;DHT22;11748;50.844;4.396;2022-11-18T08:34:14;10.60;99.90
23160;DHT22;11748;50.844;4.396;2022-11-18T08:36:40;10.70;99.90
23160;DHT22;11748;50.844;4.396;2022-11-18T08:39:07;10.80;99.90
23160;DHT22;11748;50.844;4.396;2022-11-18T08:41:36;11.00;99.90
23160;DHT22;11748;50.844;4.396;2022-11-18T08:44:03;11.20;99.90
23160;DHT22;11748;50.844;4.396;2022-11-18T08:46:29;11.30;99.90
23160;DHT22;11748;50.844;4.396;2022-11-18T08:48:56;11.30;99.90
23160;DHT22;11748;50.844;4.396;2022-11-18T08:51:22;11.20;99.90
23160;DHT22;11748;50.844;4.396;2022-11-18T08:53:49;11.00;99.90
23160;DHT22;11748;50.844;4.396;2022-11-18T08:56:17;10.90;99.90
23160;DHT22;11748;50.844;4.396;2022-11-18T08:58:44;10.90;99.90
23160;DHT22;11748;50.844;4.396;2022-11-18T09:01:10;10.60;99.90
23160;DHT22;11748;50.844;4.396;2022-11-18T09:03:36;10.80;99.90
23160;DHT22;11748;50.844;4.396;2022-11-18T09:08:37;11.00;99.90
23160;DHT22;11748;50.844;4.396;2022-11-18T09:11:17;11.20;99.90
23160;DHT22;11748;50.844;4.396;2022-11-18T09:13:44;11.30;99.90
23160;DHT22;11748;50.844;4.396;2022-11-18T09:16:11;11.40;99.90
23160;DHT22;11748;50.844;4.396;2022-11-18T09:18:39;11.50;99.90
23160;DHT22;11748;50.844;4.396;2022-11-18T09:21:07;11.50;99.90
23160;DHT22;11748;50.844;4.396;2022-11-18T09:23:35;11.40;99.90
23160;DHT22;11748;50.844;4.396;2022-11-18T09:26:10;11.50;99.90
23160;DHT22;11748;50.844;4.396;2022-11-18T09:28:37;11.50;99.90
23160;DHT22;11748;50.844;4.396;2022-11-18T09:31:08;11.40;99.90
23160;DHT22;11748;50.844;4.396;2022-11-18T09:33:37;11.30;99.90
23160;DHT22;11748;50.844;4.396;2022-11-18T09:36:10;11.40;99.90
23160;DHT22;11748;50.844;4.396;2022-11-18T09:38:37;11.30;99.90
23160;DHT22;11748;50.844;4.396;2022-11-18T09:41:28;11.50;99.90
23160;DHT22;11748;50.844;4.396;2022-11-18T09:44:24;11.50;99.90
23160;DHT22;11748;50.844;4.396;2022-11-18T09:47:03;11.40;99.90
23160;DHT22;11748;50.844;4.396;2022-11-18T09:49:38;11.40;99.90
23160;DHT22;11748;50.844;4.396;2022-11-18T09:52:26;11.70;99.90
23160;DHT22;11748;50.844;4.396;2022-11-18T09:54:55;11.60;99.90
23160;DHT22;11748;50.844;4.396;2022-11-18T09:57:34;11.60;99.90
23160;DHT22;11748;50.844;4.396;2022-11-18T10:00:27;11.70;99.90
23160;DHT22;11748;50.844;4.396;2022-11-18T10:03:04;11.70;99.90
23160;DHT22;11748;50.844;4.396;2022-11-18T10:05:47;11.80;99.90
23160;DHT22;11748;50.844;4.396;2022-11-18T10:08:22;12.10;99.90
23160;DHT22;11748;50.844;4.396;2022-11-18T10:14:07;11.80;99.90
23160;DHT22;11748;50.844;4.396;2022-11-18T10:24:40;12.00;99.90
23160;DHT22;11748;50.844;4.396;2022-11-18T10:27:12;12.00;99.90
23160;DHT22;11748;50.844;4.396;2022-11-18T10:29:38;11.80;99.90
23160;DHT22;11748;50.844;4.396;2022-11-18T10:32:13;11.90;99.90
23160;DHT22;11748;50.844;4.396;2022-11-18T10:34:51;12.20;99.90
23160;DHT22;11748;50.844;4.396;2022-11-18T10:37:34;11.90;99.90
23160;DHT22;11748;50.844;4.396;2022-11-18T10:40:04;12.10;99.90
23160;DHT22;11748;50.844;4.396;2022-11-18T10:42:34;11.90;99.90
23160;DHT22;11748;50.844;4.396;2022-11-18T10:45:25;11.90;99.90
23160;DHT22;11748;50.844;4.396;2022-11-18T10:53:32;12.20;99.90
23160;DHT22;11748;50.844;4.396;2022-11-18T10:56:10;12.10;99.90
23160;DHT22;11748;50.844;4.396;2022-11-18T10:58:47;11.90;99.90
23160;DHT22;11748;50.844;4.396;2022-11-18T11:01:22;11.60;99.90
23160;DHT22;11748;50.844;4.396;2022-11-18T11:06:28;11.50;99.90
23160;DHT22;11748;50.844;4.396;2022-11-18T11:09:01;11.70;99.90
23160;DHT22;11748;50.844;4.396;2022-11-18T11:11:30;11.90;99.90
23160;DHT22;11748;50.844;4.396;2022-11-18T11:14:18;11.90;99.90
23160;DHT22;11748;50.844;4.396;2022-11-18T11:19:18;11.80;99.90
23160;DHT22;11748;50.844;4.396;2022-11-18T11:21:45;11.80;99.90
23160;DHT22;11748;50.844;4.396;2022-11-18T11:24:11;11.90;99.90
23160;DHT22;11748;50.844;4.396;2022-11-18T11:26:49;12.10;99.90
23160;DHT22;11748;50.844;4.396;2022-11-18T11:32:10;12.40;99.90
23160;DHT22;11748;50.844;4.396;2022-11-18T11:37:21;12.30;99.90
23160;DHT22;11748;50.844;4.396;2022-11-18T11:42:59;12.50;99.90
23160;DHT22;11748;50.844;4.396;2022-11-18T11:46:11;12.70;99.90
23160;DHT22;11748;50.844;4.396;2022-11-18T11:51:31;12.90;99.90
23160;DHT22;11748;50.844;4.396;2022-11-18T11:59:44;12.60;99.90
23160;DHT22;11748;50.844;4.396;2022-11-18T12:07:28;12.40;99.90
23160;DHT22;11748;50.844;4.396;2022-11-18T12:20:51;12.20;99.90
23160;DHT22;11748;50.844;4.396;2022-11-18T12:30:47;12.10;99.90
23160;DHT22;11748;50.844;4.396;2022-11-18T12:33:16;12.20;99.90
23160;DHT22;11748;50.844;4.396;2022-11-18T12:35:49;12.30;99.90
23160;DHT22;11748;50.844;4.396;2022-11-18T12:38:30;12.20;99.90
23160;DHT22;11748;50.844;4.396;2022-11-18T12:40:56;12.30;99.90
23160;DHT22;11748;50.844;4.396;2022-11-18T12:46:55;12.60;99.90
23160;DHT22;11748;50.844;4.396;2022-11-18T12:48:56;12.90;99.90
23160;DHT22;11748;50.844;4.396;2022-11-18T12:53:51;12.90;99.90
23160;DHT22;11748;50.844;4.396;2022-11-18T12:56:27;12.70;99.90
23160;DHT22;11748;50.844;4.396;2022-11-18T12:59:00;12.70;99.90
23160;DHT22;11748;50.844;4.396;2022-11-18T13:01:28;12.70;99.90
23160;DHT22;11748;50.844;4.396;2022-11-18T13:04:15;12.60;99.90
23160;DHT22;11748;50.844;4.396;2022-11-18T13:06:42;12.70;99.90
23160;DHT22;11748;50.844;4.396;2022-11-18T13:09:17;12.80;99.90
23160;DHT22;11748;50.844;4.396;2022-11-18T13:12:15;12.60;99.90
23160;DHT22;11748;50.844;4.396;2022-11-18T13:14:43;12.60;99.90
23160;DHT22;11748;50.844;4.396;2022-11-18T13:17:33;12.80;99.90
23160;DHT22;11748;50.844;4.396;2022-11-18T13:22:55;13.00;99.90
23160;DHT22;11748;50.844;4.396;2022-11-18T13:25:39;12.90;99.90
23160;DHT22;11748;50.844;4.396;2022-11-18T13:30:34;12.50;99.90
23160;DHT22;11748;50.844;4.396;2022-11-18T13:33:01;12.80;99.90
23160;DHT22;11748;50.844;4.396;2022-11-18T13:35:27;12.80;99.90
23160;DHT22;11748;50.844;4.396;2022-11-18T13:38:01;12.80;99.90
23160;DHT22;11748;50.844;4.396;2022-11-18T13:40:28;12.90;99.90
23160;DHT22;11748;50.844;4.396;2022-11-18T13:42:54;12.80;99.90
23160;DHT22;11748;50.844;4.396;2022-11-18T13:45:25;13.00;99.90
23160;DHT22;11748;50.844;4.396;2022-11-18T13:47:56;13.20;99.90
23160;DHT22;11748;50.844;4.396;2022-11-18T13:53:18;13.40;99.90
23160;DHT22;11748;50.844;4.396;2022-11-18T13:56:02;13.10;99.90
23160;DHT22;11748;50.844;4.396;2022-11-18T14:01:16;12.70;99.90
23160;DHT22;11748;50.844;4.396;2022-11-18T14:03:49;12.90;99.90
23160;DHT22;11748;50.844;4.396;2022-11-18T14:06:35;13.00;99.90
23160;DHT22;11748;50.844;4.396;2022-11-18T14:09:17;12.90;99.90
23160;DHT22;11748;50.844;4.396;2022-11-18T14:11:56;12.80;99.90
23160;DHT22;11748;50.844;4.396;2022-11-18T14:14:34;13.00;99.90
23160;DHT22;11748;50.844;4.396;2022-11-18T14:17:20;13.30;99.90
23160;DHT22;11748;50.844;4.396;2022-11-18T14:19:48;13.20;99.90
23160;DHT22;11748;50.844;4.396;2022-11-18T14:24:42;13.30;99.90
23160;DHT22;11748;50.844;4.396;2022-11-18T14:27:38;13.00;99.90
23160;DHT22;11748;50.844;4.396;2022-11-18T14:33:17;12.70;99.90
23160;DHT22;11748;50.844;4.396;2022-11-18T14:35:54;12.80;99.90
23160;DHT22;11748;50.844;4.396;2022-11-18T14:40:59;13.00;99.90
23160;DHT22;11748;50.844;4.396;2022-11-18T14:43:26;13.30;99.90
23160;DHT22;11748;50.844;4.396;2022-11-18T14:45:54;13.50;99.90
23160;DHT22;11748;50.844;4.396;2022-11-18T14:48:22;13.50;99.90
23160;DHT22;11748;50.844;4.396;2022-11-18T14:50:49;13.30;99.90
23160;DHT22;11748;50.844;4.396;2022-11-18T14:53:17;13.10;99.90
23160;DHT22;11748;50.844;4.396;2022-11-18T14:55:43;13.20;99.90
23160;DHT22;11748;50.844;4.396;2022-11-18T14:58:14;13.10;99.90
23160;DHT22;11748;50.844;4.396;2022-11-18T15:00:41;12.80;99.90
23160;DHT22;11748;50.844;4.396;2022-11-18T15:03:08;12.80;99.90
23160;DHT22;11748;50.844;4.396;2022-11-18T15:05:35;13.00;99.90
23160;DHT22;11748;50.844;4.396;2022-11-18T15:08:01;12.90;99.90
23160;DHT22;11748;50.844;4.396;2022-11-18T15:10:28;13.00;99.90
23160;DHT22;11748;50.844;4.396;2022-11-18T15:12:54;13.20;99.90
23160;DHT22;11748;50.844;4.396;2022-11-18T15:15:20;13.10;99.90
23160;DHT22;11748;50.844;4.396;2022-11-18T15:17:46;13.10;99.90
23160;DHT22;11748;50.844;4.396;2022-11-18T15:20:15;13.30;99.90
23160;DHT22;11748;50.844;4.396;2022-11-18T15:22:42;12.90;99.90
23160;DHT22;11748;50.844;4.396;2022-11-18T15:25:08;12.90;99.90
23160;DHT22;11748;50.844;4.396;2022-11-18T15:27:34;13.10;99.90
23160;DHT22;11748;50.844;4.396;2022-11-18T15:30:01;13.20;99.90
23160;DHT22;11748;50.844;4.396;2022-11-18T15:32:26;13.30;99.90
23160;DHT22;11748;50.844;4.396;2022-11-18T15:34:52;13.20;99.90
23160;DHT22;11748;50.844;4.396;2022-11-18T15:37:19;12.80;99.90
23160;DHT22;11748;50.844;4.396;2022-11-18T15:39:44;12.50;99.90
23160;DHT22;11748;50.844;4.396;2022-11-18T15:42:10;12.40;99.90
23160;DHT22;11748;50.844;4.396;2022-11-18T15:44:36;12.40;99.90
23160;DHT22;11748;50.844;4.396;2022-11-18T15:47:03;12.30;99.90
23160;DHT22;11748;50.844;4.396;2022-11-18T15:49:29;12.20;99.90
23160;DHT22;11748;50.844;4.396;2022-11-18T15:51:55;12.10;99.90
23160;DHT22;11748;50.844;4.396;2022-11-18T15:54:21;12.10;99.90
23160;DHT22;11748;50.844;4.396;2022-11-18T15:56:47;11.90;99.90
23160;DHT22;11748;50.844;4.396;2022-11-18T15:59:13;12.00;99.90
23160;DHT22;11748;50.844;4.396;2022-11-18T16:01:45;12.00;99.90
23160;DHT22;11748;50.844;4.396;2022-11-18T16:04:16;11.90;99.90
23160;DHT22;11748;50.844;4.396;2022-11-18T16:06:43;11.90;99.90
23160;DHT22;11748;50.844;4.396;2022-11-18T16:09:09;11.90;99.90
23160;DHT22;11748;50.844;4.396;2022-11-18T16:11:35;11.90;99.90
23160;DHT22;11748;50.844;4.396;2022-11-18T16:14:21;12.00;99.90
23160;DHT22;11748;50.844;4.396;2022-11-18T16:16:48;12.10;99.90
23160;DHT22;11748;50.844;4.396;2022-11-18T16:19:17;11.90;99.90
23160;DHT22;11748;50.844;4.396;2022-11-18T16:21:46;11.90;99.90
23160;DHT22;11748;50.844;4.396;2022-11-18T16:24:15;11.90;99.90
23160;DHT22;11748;50.844;4.396;2022-11-18T16:26:41;11.90;99.90
23160;DHT22;11748;50.844;4.396;2022-11-18T16:29:09;11.90;99.90
23160;DHT22;11748;50.844;4.396;2022-11-18T16:31:35;11.90;99.90
23160;DHT22;11748;50.844;4.396;2022-11-18T16:34:05;11.80;99.90
23160;DHT22;11748;50.844;4.396;2022-11-18T16:36:31;11.70;99.90
23160;DHT22;11748;50.844;4.396;2022-11-18T16:39:01;11.60;99.90
23160;DHT22;11748;50.844;4.396;2022-11-18T16:41:27;11.60;99.90
23160;DHT22;11748;50.844;4.396;2022-11-18T16:43:56;11.70;99.90
23160;DHT22;11748;50.844;4.396;2022-11-18T16:46:28;11.80;99.90
23160;DHT22;11748;50.844;4.396;2022-11-18T16:48:55;11.80;99.90
23160;DHT22;11748;50.844;4.396;2022-11-18T16:51:25;11.90;99.90
23160;DHT22;11748;50.844;4.396;2022-11-18T16:53:54;11.70;99.90
23160;DHT22;11748;50.844;4.396;2022-11-18T16:56:23;11.70;99.90
23160;DHT22;11748;50.844;4.396;2022-11-18T16:59:00;11.70;99.90
23160;DHT22;11748;50.844;4.396;2022-11-18T17:01:26;11.70;99.90
23160;DHT22;11748;50.844;4.396;2022-11-18T17:03:53;11.50;99.90
23160;DHT22;11748;50.844;4.396;2022-11-18T17:06:21;11.60;99.90
23160;DHT22;11748;50.844;4.396;2022-11-18T17:08:47;11.50;99.90
23160;DHT22;11748;50.844;4.396;2022-11-18T17:11:13;11.50;99.90
23160;DHT22;11748;50.844;4.396;2022-11-18T17:13:40;11.60;99.90
23160;DHT22;11748;50.844;4.396;2022-11-18T17:16:15;11.50;99.90
23160;DHT22;11748;50.844;4.396;2022-11-18T17:18:42;11.60;99.90
23160;DHT22;11748;50.844;4.396;2022-11-18T17:21:10;11.50;99.90
23160;DHT22;11748;50.844;4.396;2022-11-18T17:23:39;11.50;99.90
23160;DHT22;11748;50.844;4.396;2022-11-18T17:26:06;11.60;99.90
23160;DHT22;11748;50.844;4.396;2022-11-18T17:28:34;11.60;99.90
23160;DHT22;11748;50.844;4.396;2022-11-18T17:31:04;11.50;99.90
23160;DHT22;11748;50.844;4.396;2022-11-18T17:33:32;11.50;99.90
23160;DHT22;11748;50.844;4.396;2022-11-18T17:36:06;11.50;99.90
23160;DHT22;11748;50.844;4.396;2022-11-18T17:38:34;11.40;99.90